createdAt,value
2023-03-17T00:02:52.541Z,56.72
2023-03-17T00:08:25.996Z,56.70
2023-03-17T00:13:53.103Z,56.60
2023-03-17T00:19:28.681Z,57.37
2023-03-17T00:24:56.076Z,57.51
2023-03-17T00:30:23.835Z,57.26
2023-03-17T00:35:51.242Z,56.71
2023-03-17T00:41:18.541Z,57.31
2023-03-17T00:46:48.171Z,57.36
2023-03-17T00:52:15.312Z,57.67
2023-03-17T00:57:43.128Z,57.70
2023-03-17T01:03:12.652Z,58.19
2023-03-17T01:08:41.289Z,58.49
2023-03-17T01:14:10.131Z,58.93
2023-03-17T01:19:37.611Z,58.94
2023-03-17T01:25:05.694Z,59.23
2023-03-17T01:30:37.769Z,59.73
2023-03-17T01:36:06.497Z,59.39
2023-03-17T01:41:37.641Z,59.68
2023-03-17T01:47:05.303Z,59.69
2023-03-17T01:52:34.594Z,59.05
2023-03-17T01:58:02.222Z,59.47
2023-03-17T02:03:30.015Z,60.46
2023-03-17T02:08:58.322Z,59.81
2023-03-17T02:14:25.766Z,60.01
2023-03-17T02:19:54.779Z,60.66
2023-03-17T02:25:24.524Z,60.15
2023-03-17T02:30:52.719Z,60.48
2023-03-17T02:36:20.829Z,61.91
2023-03-17T02:41:48.751Z,62.79
2023-03-17T02:47:17.381Z,62.78
2023-03-17T02:52:44.686Z,61.94
2023-03-17T02:58:11.878Z,61.44
2023-03-17T03:03:39.857Z,61.58
2023-03-17T03:09:07.504Z,61.90
2023-03-17T03:14:34.700Z,63.33
2023-03-17T03:20:01.570Z,62.71
2023-03-17T03:25:28.901Z,63.26
2023-03-17T03:30:56.683Z,63.18
2023-03-17T03:36:23.571Z,62.36
2023-03-17T03:41:50.460Z,62.94
2023-03-17T03:47:17.844Z,62.59
2023-03-17T03:52:44.495Z,61.53
2023-03-17T03:58:11.663Z,62.23
2023-03-17T04:03:39.153Z,62.68
2023-03-17T04:09:06.581Z,62.15
2023-03-17T04:14:33.716Z,61.37
2023-03-17T04:20:00.860Z,61.21
2023-03-17T04:25:27.854Z,62.39
2023-03-17T04:30:55.943Z,62.31
2023-03-17T04:36:24.276Z,61.97
2023-03-17T04:41:51.995Z,62.23
2023-03-17T04:47:20.208Z,61.80
2023-03-17T04:52:48.126Z,61.68
2023-03-17T04:58:29.889Z,61.50
2023-03-17T05:03:58.085Z,61.84
2023-03-17T05:09:28.911Z,61.27
2023-03-17T05:14:56.214Z,59.07
2023-03-17T05:20:29.180Z,55.85
2023-03-17T05:25:59.323Z,52.61
2023-03-17T05:31:26.978Z,49.96
2023-03-17T05:36:55.173Z,47.85
2023-03-17T05:42:23.111Z,46.41
2023-03-17T05:47:50.012Z,46.50
2023-03-17T05:53:17.693Z,42.66
2023-03-17T05:58:44.831Z,39.40
2023-03-17T06:04:12.820Z,37.51
2023-03-17T06:09:40.397Z,35.41
2023-03-17T06:15:10.002Z,34.07
2023-03-17T06:20:37.234Z,31.39
2023-03-17T06:26:05.737Z,30.83
2023-03-17T06:31:32.689Z,30.14
2023-03-17T06:37:00.210Z,29.37
2023-03-17T06:42:27.110Z,28.96
2023-03-17T06:47:54.559Z,28.60
2023-03-17T06:53:22.308Z,28.54
2023-03-17T06:58:49.286Z,27.66
2023-03-17T07:04:16.967Z,27.10
2023-03-17T07:09:45.428Z,27.47
2023-03-17T07:15:13.621Z,29.54
2023-03-17T07:20:41.926Z,29.82
2023-03-17T07:26:10.124Z,29.75
2023-03-17T07:31:38.905Z,29.50
2023-03-17T07:37:07.225Z,28.94
2023-03-17T07:42:35.098Z,28.29
2023-03-17T07:48:05.739Z,28.18
2023-03-17T07:53:34.415Z,29.03
2023-03-17T07:59:03.394Z,28.57
2023-03-17T08:04:30.586Z,28.51
2023-03-17T08:09:59.213Z,25.00
2023-03-17T08:15:26.586Z,26.26
2023-03-17T08:20:54.544Z,27.62
2023-03-17T08:26:22.247Z,27.21
2023-03-17T08:31:49.630Z,26.51
2023-03-17T08:37:17.509Z,25.88
2023-03-17T08:42:48.455Z,25.26
2023-03-17T08:48:15.565Z,25.58
2023-03-17T08:53:42.495Z,26.61
2023-03-17T08:59:10.280Z,27.29
2023-03-17T09:04:40.244Z,26.77
2023-03-17T09:10:09.803Z,26.95
2023-03-17T09:15:39.269Z,26.14
2023-03-17T09:21:07.357Z,26.66
2023-03-17T09:26:34.757Z,26.08
2023-03-17T09:32:02.668Z,25.22
2023-03-17T09:37:30.375Z,27.20
2023-03-17T09:43:07.385Z,26.53
2023-03-17T09:48:49.968Z,27.60
2023-03-17T09:54:32.877Z,26.52
2023-03-17T10:00:06.765Z,25.27
2023-03-17T10:05:37.673Z,26.13
2023-03-17T10:11:23.192Z,25.62
2023-03-17T10:17:22.475Z,25.67
2023-03-17T10:22:58.402Z,26.28
2023-03-17T10:28:32.014Z,25.62
2023-03-17T10:34:16.870Z,26.46
2023-03-17T10:39:53.441Z,27.07
2023-03-17T10:45:40.936Z,26.37
2023-03-17T10:51:10.476Z,26.99
2023-03-17T10:56:42.168Z,27.61
2023-03-17T11:02:31.941Z,27.38
2023-03-17T11:08:15.495Z,25.96
2023-03-17T11:13:43.373Z,24.85
2023-03-17T11:19:17.049Z,27.75
2023-03-17T11:25:13.001Z,25.87
2023-03-17T11:30:48.471Z,25.94
2023-03-17T11:36:27.652Z,24.46
2023-03-17T11:42:27.942Z,24.28
2023-03-17T11:48:28.413Z,24.35
2023-03-17T11:54:11.181Z,24.50
2023-03-17T12:00:07.333Z,24.91
2023-03-17T12:05:42.206Z,23.53
2023-03-17T12:11:15.557Z,23.73
2023-03-17T12:16:54.801Z,24.88
2023-03-17T12:22:28.767Z,23.67
2023-03-17T12:28:11.282Z,24.74
2023-03-17T12:34:05.600Z,24.26
2023-03-17T12:39:35.402Z,24.30
2023-03-17T12:45:12.138Z,23.95
2023-03-17T12:51:07.082Z,24.43
2023-03-17T12:56:36.896Z,25.04
2023-03-17T13:02:23.394Z,24.91
2023-03-17T13:07:56.545Z,25.11
2023-03-17T13:13:45.543Z,25.67
2023-03-17T13:19:15.949Z,25.27
2023-03-17T13:24:52.634Z,25.15
2023-03-17T13:30:29.537Z,26.11
2023-03-17T13:36:36.685Z,25.86
2023-03-17T13:42:18.809Z,26.38
2023-03-17T13:47:47.634Z,25.07
2023-03-17T13:53:16.062Z,24.94
2023-03-17T13:59:08.314Z,25.30
2023-03-17T14:04:53.047Z,25.94
2023-03-17T14:10:24.067Z,25.64
2023-03-17T14:16:04.170Z,26.45
2023-03-17T14:21:33.644Z,25.79
2023-03-17T14:27:10.243Z,26.73
2023-03-17T14:32:38.850Z,26.03
2023-03-17T14:38:29.754Z,25.28
2023-03-17T14:43:59.611Z,24.54
2023-03-17T14:49:28.831Z,25.10
2023-03-17T14:54:59.775Z,24.81
2023-03-17T15:00:34.396Z,25.24
2023-03-17T15:06:06.820Z,25.46
2023-03-17T15:11:42.215Z,25.73
2023-03-17T15:17:26.845Z,26.42
2023-03-17T15:23:04.944Z,26.72
2023-03-17T15:28:33.486Z,27.68
2023-03-17T15:34:02.165Z,27.72
2023-03-17T15:39:30.376Z,29.52
2023-03-17T15:45:00.340Z,29.92
2023-03-17T15:50:31.100Z,30.39
2023-03-17T15:55:59.705Z,30.96
2023-03-17T16:01:28.042Z,31.32
2023-03-17T16:06:56.351Z,32.21
2023-03-17T16:12:24.214Z,32.03
2023-03-17T16:17:55.138Z,32.88
2023-03-17T16:23:29.042Z,33.45
2023-03-17T16:28:58.839Z,33.63
2023-03-17T16:34:29.114Z,33.98
2023-03-17T16:40:00.935Z,34.88
2023-03-17T16:45:34.391Z,35.36
2023-03-17T16:51:03.725Z,35.50
2023-03-17T16:56:33.445Z,35.86
2023-03-17T17:02:03.247Z,37.22
2023-03-17T17:07:33.418Z,37.09
2023-03-17T17:13:07.521Z,37.38
2023-03-17T17:18:37.984Z,38.03
2023-03-17T17:24:08.783Z,38.94
2023-03-17T17:29:39.796Z,39.93
2023-03-17T17:35:11.344Z,39.09
2023-03-17T17:40:43.217Z,40.19
2023-03-17T17:46:16.781Z,38.99
2023-03-17T17:51:45.943Z,39.85
2023-03-17T17:57:19.142Z,39.46
2023-03-17T18:02:51.975Z,40.05
2023-03-17T18:08:22.548Z,40.67
2023-03-17T18:13:52.556Z,41.38
2023-03-17T18:19:23.959Z,41.39
2023-03-17T18:24:53.673Z,42.30
2023-03-17T18:30:28.582Z,41.51
2023-03-17T18:35:59.557Z,42.69
2023-03-17T18:41:29.573Z,42.80
2023-03-17T18:47:01.247Z,43.22
2023-03-17T18:52:38.653Z,43.86
2023-03-17T18:58:06.589Z,43.35
2023-03-17T19:03:34.314Z,43.93
2023-03-17T19:09:02.428Z,44.24
2023-03-17T19:14:30.002Z,44.75
2023-03-17T19:19:57.555Z,46.49
2023-03-17T19:25:26.222Z,46.60
2023-03-17T19:30:56.227Z,48.23
2023-03-17T19:36:24.608Z,47.30
2023-03-17T19:41:56.191Z,46.96
2023-03-17T19:47:23.460Z,46.53
2023-03-17T19:52:53.424Z,46.95
2023-03-17T19:58:21.894Z,46.44
2023-03-17T20:03:49.588Z,47.16
2023-03-17T20:09:17.312Z,46.43
2023-03-17T20:14:44.581Z,45.67
2023-03-17T20:20:12.890Z,47.35
2023-03-17T20:25:40.196Z,46.97
2023-03-17T20:31:08.395Z,47.62
2023-03-17T20:36:35.356Z,47.10
2023-03-17T20:42:04.483Z,46.53
2023-03-17T20:47:32.298Z,46.73
2023-03-17T20:52:59.445Z,47.81
2023-03-17T20:58:27.902Z,48.00
2023-03-17T21:03:55.567Z,47.14
2023-03-17T21:09:24.153Z,48.97
2023-03-17T21:14:53.560Z,48.75
2023-03-17T21:20:23.908Z,48.88
2023-03-17T21:25:56.182Z,50.07
2023-03-17T21:31:23.659Z,49.93
2023-03-17T21:36:52.136Z,49.23
2023-03-17T21:42:19.852Z,48.36
2023-03-17T21:47:48.063Z,48.67
2023-03-17T21:53:16.004Z,49.34
2023-03-17T21:58:43.774Z,48.63
2023-03-17T22:04:12.744Z,48.91
2023-03-17T22:09:43.089Z,49.56
2023-03-17T22:15:13.531Z,50.48
2023-03-17T22:20:42.937Z,49.56
2023-03-17T22:26:18.861Z,48.99
2023-03-17T22:31:49.254Z,49.56
2023-03-17T22:37:19.332Z,50.16
2023-03-17T22:42:49.902Z,50.47
2023-03-17T22:48:19.288Z,50.11
2023-03-17T22:53:49.483Z,51.08
2023-03-17T22:59:19.913Z,51.47
2023-03-17T23:04:48.717Z,52.01
2023-03-17T23:10:23.206Z,52.51
2023-03-17T23:15:53.271Z,52.81
2023-03-17T23:21:30.845Z,52.63
2023-03-17T23:26:59.762Z,52.56
2023-03-17T23:32:30.011Z,52.37
2023-03-17T23:37:59.261Z,52.37
2023-03-17T23:43:27.669Z,52.51
